sensor_id;sensor_type;location;lat;lon;timestamp;pressure;altitude;pressure_sealevel;temperature;humidity
11077;BME280;5591;42.626;23.380;2023-03-22T00:00:35;93815.56;;;11.22;100.00
11077;BME280;5591;42.626;23.380;2023-03-22T00:03:03;93815.56;;;11.29;100.00
11077;BME280;5591;42.626;23.380;2023-03-22T00:05:31;93809.50;;;11.22;100.00
11077;BME280;5591;42.626;23.380;2023-03-22T00:07:58;93800.41;;;11.11;100.00
11077;BME280;5591;42.626;23.380;2023-03-22T00:10:25;93806.47;;;10.99;100.00
11077;BME280;5591;42.626;23.380;2023-03-22T00:12:53;93811.91;;;10.78;100.00
11077;BME280;5591;42.626;23.380;2023-03-22T00:15:20;93810.28;;;10.70;100.00
11077;BME280;5591;42.626;23.380;2023-03-22T00:17:47;93799.75;;;10.64;100.00
11077;BME280;5591;42.626;23.380;2023-03-22T00:20:15;93810.34;;;10.30;100.00
11077;BME280;5591;42.626;23.380;2023-03-22T00:22:46;93770.06;;;9.97;100.00
11077;BME280;5591;42.626;23.380;2023-03-22T00:25:12;93798.28;;;10.48;100.00
11077;BME280;5591;42.626;23.380;2023-03-22T00:27:39;93795.72;;;10.61;100.00
11077;BME280;5591;42.626;23.380;2023-03-22T00:30:09;93716.66;;;10.04;100.00
11077;BME280;5591;42.626;23.380;2023-03-22T00:32:36;93780.72;;;10.36;100.00
11077;BME280;5591;42.626;23.380;2023-03-22T00:35:05;93765.19;;;10.41;100.00
11077;BME280;5591;42.626;23.380;2023-03-22T00:37:32;93794.03;;;10.34;100.00
11077;BME280;5591;42.626;23.380;2023-03-22T00:40:06;93787.41;;;10.51;100.00
11077;BME280;5591;42.626;23.380;2023-03-22T00:42:34;93787.78;;;10.42;100.00
11077;BME280;5591;42.626;23.380;2023-03-22T00:45:01;93787.34;;;10.32;100.00
11077;BME280;5591;42.626;23.380;2023-03-22T00:47:27;93781.94;;;10.40;100.00
11077;BME280;5591;42.626;23.380;2023-03-22T00:49:54;93782.97;;;10.52;100.00
11077;BME280;5591;42.626;23.380;2023-03-22T00:52:21;93776.66;;;10.27;100.00
11077;BME280;5591;42.626;23.380;2023-03-22T00:54:48;93775.97;;;10.05;100.00
11077;BME280;5591;42.626;23.380;2023-03-22T00:57:17;93782.13;;;9.91;100.00
11077;BME280;5591;42.626;23.380;2023-03-22T00:59:44;93770.03;;;9.90;100.00
11077;BME280;5591;42.626;23.380;2023-03-22T01:02:11;93784.03;;;10.04;100.00
11077;BME280;5591;42.626;23.380;2023-03-22T01:04:39;93776.88;;;9.91;100.00
11077;BME280;5591;42.626;23.380;2023-03-22T01:07:11;93780.94;;;9.94;100.00
11077;BME280;5591;42.626;23.380;2023-03-22T01:09:42;93770.84;;;9.91;100.00
11077;BME280;5591;42.626;23.380;2023-03-22T01:12:10;93772.81;;;9.82;100.00
11077;BME280;5591;42.626;23.380;2023-03-22T01:14:38;93770.31;;;9.68;100.00
11077;BME280;5591;42.626;23.380;2023-03-22T01:17:05;93769.63;;;9.93;100.00
11077;BME280;5591;42.626;23.380;2023-03-22T01:19:33;93759.84;;;10.08;100.00
11077;BME280;5591;42.626;23.380;2023-03-22T01:22:00;93767.59;;;9.89;100.00
11077;BME280;5591;42.626;23.380;2023-03-22T01:24:27;93746.16;;;9.73;100.00
11077;BME280;5591;42.626;23.380;2023-03-22T01:26:54;93742.28;;;9.62;100.00
11077;BME280;5591;42.626;23.380;2023-03-22T01:29:21;93749.16;;;9.70;100.00
11077;BME280;5591;42.626;23.380;2023-03-22T01:31:50;93708.63;;;9.25;100.00
11077;BME280;5591;42.626;23.380;2023-03-22T01:34:16;93751.22;;;9.74;100.00
11077;BME280;5591;42.626;23.380;2023-03-22T01:36:43;93749.63;;;9.79;100.00
11077;BME280;5591;42.626;23.380;2023-03-22T01:39:10;93749.06;;;9.90;100.00
11077;BME280;5591;42.626;23.380;2023-03-22T01:41:37;93751.25;;;9.87;100.00
11077;BME280;5591;42.626;23.380;2023-03-22T01:44:09;93742.78;;;9.78;100.00
11077;BME280;5591;42.626;23.380;2023-03-22T01:46:36;93685.16;;;9.04;100.00
11077;BME280;5591;42.626;23.380;2023-03-22T01:49:08;93746.00;;;9.40;100.00
11077;BME280;5591;42.626;23.380;2023-03-22T01:51:38;93743.25;;;9.48;100.00
11077;BME280;5591;42.626;23.380;2023-03-22T01:54:08;93738.66;;;9.63;100.00
11077;BME280;5591;42.626;23.380;2023-03-22T01:56:39;93723.72;;;9.57;100.00
11077;BME280;5591;42.626;23.380;2023-03-22T01:59:09;93736.50;;;9.73;100.00
11077;BME280;5591;42.626;23.380;2023-03-22T02:01:36;93734.03;;;9.65;100.00
11077;BME280;5591;42.626;23.380;2023-03-22T02:04:07;93736.25;;;9.68;100.00
11077;BME280;5591;42.626;23.380;2023-03-22T02:06:36;93738.53;;;9.10;100.00
11077;BME280;5591;42.626;23.380;2023-03-22T02:09:04;93752.75;;;9.22;100.00
11077;BME280;5591;42.626;23.380;2023-03-22T02:11:35;93740.34;;;9.37;100.00
11077;BME280;5591;42.626;23.380;2023-03-22T02:14:14;93743.06;;;9.56;100.00
11077;BME280;5591;42.626;23.380;2023-03-22T02:16:51;93737.81;;;9.56;100.00
11077;BME280;5591;42.626;23.380;2023-03-22T02:19:42;93734.41;;;9.56;100.00
11077;BME280;5591;42.626;23.380;2023-03-22T02:22:37;93746.09;;;9.60;100.00
11077;BME280;5591;42.626;23.380;2023-03-22T02:25:25;93743.72;;;9.31;100.00
11077;BME280;5591;42.626;23.380;2023-03-22T02:31:15;93752.53;;;9.57;100.00
11077;BME280;5591;42.626;23.380;2023-03-22T02:39:49;93758.59;;;9.58;100.00
11077;BME280;5591;42.626;23.380;2023-03-22T02:42:26;93761.31;;;9.43;100.00
11077;BME280;5591;42.626;23.380;2023-03-22T02:44:59;93760.38;;;9.57;100.00
11077;BME280;5591;42.626;23.380;2023-03-22T02:47:33;93762.94;;;9.44;100.00
11077;BME280;5591;42.626;23.380;2023-03-22T02:50:08;93760.97;;;9.53;100.00
11077;BME280;5591;42.626;23.380;2023-03-22T02:52:38;93761.28;;;9.77;100.00
11077;BME280;5591;42.626;23.380;2023-03-22T02:55:13;93795.31;;;9.71;100.00
11077;BME280;5591;42.626;23.380;2023-03-22T02:57:46;93759.00;;;9.61;100.00
11077;BME280;5591;42.626;23.380;2023-03-22T03:00:15;93789.97;;;9.51;100.00
11077;BME280;5591;42.626;23.380;2023-03-22T03:02:46;93762.47;;;9.34;100.00
11077;BME280;5591;42.626;23.380;2023-03-22T03:05:16;93791.34;;;9.47;100.00
11077;BME280;5591;42.626;23.380;2023-03-22T03:07:47;93765.94;;;9.41;100.00
11077;BME280;5591;42.626;23.380;2023-03-22T03:10:17;93763.88;;;9.71;100.00
11077;BME280;5591;42.626;23.380;2023-03-22T03:12:45;93763.31;;;9.75;100.00
11077;BME280;5591;42.626;23.380;2023-03-22T03:15:14;93757.81;;;9.64;100.00
11077;BME280;5591;42.626;23.380;2023-03-22T03:20:42;93786.09;;;9.75;100.00
11077;BME280;5591;42.626;23.380;2023-03-22T03:23:17;93772.06;;;9.55;100.00
11077;BME280;5591;42.626;23.380;2023-03-22T03:25:54;93768.88;;;9.59;100.00
11077;BME280;5591;42.626;23.380;2023-03-22T03:28:26;93775.00;;;9.79;100.00
11077;BME280;5591;42.626;23.380;2023-03-22T03:31:07;93772.94;;;9.68;100.00
11077;BME280;5591;42.626;23.380;2023-03-22T03:33:38;93770.66;;;9.52;100.00
11077;BME280;5591;42.626;23.380;2023-03-22T03:36:10;93769.19;;;9.16;100.00
11077;BME280;5591;42.626;23.380;2023-03-22T03:38:45;93772.28;;;9.26;100.00
11077;BME280;5591;42.626;23.380;2023-03-22T03:41:16;93766.69;;;9.35;100.00
11077;BME280;5591;42.626;23.380;2023-03-22T03:43:44;93775.53;;;9.28;100.00
11077;BME280;5591;42.626;23.380;2023-03-22T03:46:13;93775.19;;;9.37;100.00
11077;BME280;5591;42.626;23.380;2023-03-22T03:48:43;93768.75;;;9.12;100.00
11077;BME280;5591;42.626;23.380;2023-03-22T03:51:11;93778.56;;;9.31;100.00
11077;BME280;5591;42.626;23.380;2023-03-22T03:53:38;93775.78;;;9.33;100.00
11077;BME280;5591;42.626;23.380;2023-03-22T03:56:05;93779.16;;;9.27;100.00
11077;BME280;5591;42.626;23.380;2023-03-22T03:58:34;93780.06;;;9.13;100.00
11077;BME280;5591;42.626;23.380;2023-03-22T04:01:01;93783.16;;;9.23;100.00
11077;BME280;5591;42.626;23.380;2023-03-22T04:03:28;93781.47;;;9.15;100.00
11077;BME280;5591;42.626;23.380;2023-03-22T04:05:55;93779.44;;;9.11;100.00
11077;BME280;5591;42.626;23.380;2023-03-22T04:08:24;93791.84;;;9.02;100.00
11077;BME280;5591;42.626;23.380;2023-03-22T04:10:51;93708.97;;;8.82;100.00
11077;BME280;5591;42.626;23.380;2023-03-22T04:13:18;93781.16;;;9.25;100.00
11077;BME280;5591;42.626;23.380;2023-03-22T04:15:51;93787.09;;;9.12;100.00
11077;BME280;5591;42.626;23.380;2023-03-22T04:18:18;93798.50;;;9.05;100.00
11077;BME280;5591;42.626;23.380;2023-03-22T04:20:45;93795.66;;;9.00;100.00
11077;BME280;5591;42.626;23.380;2023-03-22T04:23:14;93789.97;;;9.17;100.00
11077;BME280;5591;42.626;23.380;2023-03-22T04:25:41;93787.16;;;8.98;100.00
11077;BME280;5591;42.626;23.380;2023-03-22T04:28:08;93800.22;;;9.19;100.00
11077;BME280;5591;42.626;23.380;2023-03-22T04:30:35;93792.31;;;9.12;100.00
11077;BME280;5591;42.626;23.380;2023-03-22T04:33:03;93798.16;;;9.14;100.00
11077;BME280;5591;42.626;23.380;2023-03-22T04:35:32;93804.44;;;9.20;100.00
11077;BME280;5591;42.626;23.380;2023-03-22T04:37:59;93807.56;;;9.30;100.00
11077;BME280;5591;42.626;23.380;2023-03-22T04:40:26;93796.47;;;9.28;100.00
11077;BME280;5591;42.626;23.380;2023-03-22T04:42:56;93801.91;;;9.54;100.00
11077;BME280;5591;42.626;23.380;2023-03-22T04:45:23;93765.47;;;9.31;100.00
11077;BME280;5591;42.626;23.380;2023-03-22T04:47:53;93809.03;;;9.39;100.00
11077;BME280;5591;42.626;23.380;2023-03-22T04:50:22;93807.50;;;9.51;100.00
11077;BME280;5591;42.626;23.380;2023-03-22T04:52:52;93815.19;;;9.25;100.00
11077;BME280;5591;42.626;23.380;2023-03-22T04:55:19;93810.38;;;9.28;100.00
11077;BME280;5591;42.626;23.380;2023-03-22T04:57:46;93843.81;;;9.26;100.00
11077;BME280;5591;42.626;23.380;2023-03-22T05:00:13;93806.41;;;9.11;100.00
11077;BME280;5591;42.626;23.380;2023-03-22T05:02:41;93814.09;;;9.40;100.00
11077;BME280;5591;42.626;23.380;2023-03-22T05:05:08;93822.03;;;9.26;100.00
11077;BME280;5591;42.626;23.380;2023-03-22T05:07:36;93820.56;;;9.17;100.00
11077;BME280;5591;42.626;23.380;2023-03-22T05:10:04;93746.25;;;8.63;100.00
11077;BME280;5591;42.626;23.380;2023-03-22T05:12:31;93828.34;;;9.10;100.00
11077;BME280;5591;42.626;23.380;2023-03-22T05:14:58;93835.56;;;9.29;100.00
11077;BME280;5591;42.626;23.380;2023-03-22T05:17:25;93834.22;;;9.40;100.00
11077;BME280;5591;42.626;23.380;2023-03-22T05:19:52;93833.03;;;9.42;100.00
11077;BME280;5591;42.626;23.380;2023-03-22T05:22:19;93825.06;;;9.57;100.00
11077;BME280;5591;42.626;23.380;2023-03-22T05:24:48;93833.16;;;9.62;100.00
11077;BME280;5591;42.626;23.380;2023-03-22T05:27:14;93831.88;;;9.51;100.00
11077;BME280;5591;42.626;23.380;2023-03-22T05:29:41;93839.19;;;9.28;100.00
11077;BME280;5591;42.626;23.380;2023-03-22T05:32:09;93837.41;;;9.35;100.00
11077;BME280;5591;42.626;23.380;2023-03-22T05:34:36;93835.56;;;9.29;100.00
11077;BME280;5591;42.626;23.380;2023-03-22T05:37:06;93815.19;;;9.25;100.00
11077;BME280;5591;42.626;23.380;2023-03-22T05:39:33;93844.94;;;9.45;100.00
11077;BME280;5591;42.626;23.380;2023-03-22T05:42:01;93846.47;;;9.60;100.00
11077;BME280;5591;42.626;23.380;2023-03-22T05:44:28;93844.69;;;9.40;100.00
11077;BME280;5591;42.626;23.380;2023-03-22T05:46:54;93845.91;;;9.65;100.00
11077;BME280;5591;42.626;23.380;2023-03-22T05:49:21;93846.66;;;9.59;100.00
11077;BME280;5591;42.626;23.380;2023-03-22T05:51:49;93849.69;;;9.62;100.00
11077;BME280;5591;42.626;23.380;2023-03-22T05:54:15;93847.41;;;9.53;100.00
11077;BME280;5591;42.626;23.380;2023-03-22T05:56:42;93862.13;;;9.54;100.00
11077;BME280;5591;42.626;23.380;2023-03-22T05:59:11;93852.31;;;9.62;100.00
11077;BME280;5591;42.626;23.380;2023-03-22T06:01:38;93869.69;;;9.42;100.00
11077;BME280;5591;42.626;23.380;2023-03-22T06:04:05;93857.88;;;9.53;100.00
11077;BME280;5591;42.626;23.380;2023-03-22T06:06:32;93870.31;;;9.44;100.00
11077;BME280;5591;42.626;23.380;2023-03-22T06:08:59;93872.41;;;9.55;100.00
11077;BME280;5591;42.626;23.380;2023-03-22T06:11:25;93875.72;;;9.64;100.00
11077;BME280;5591;42.626;23.380;2023-03-22T06:13:52;93875.47;;;9.59;100.00
11077;BME280;5591;42.626;23.380;2023-03-22T06:16:20;93877.44;;;9.84;100.00
11077;BME280;5591;42.626;23.380;2023-03-22T06:18:47;93881.47;;;9.80;100.00
11077;BME280;5591;42.626;23.380;2023-03-22T06:21:14;93879.06;;;9.85;100.00
11077;BME280;5591;42.626;23.380;2023-03-22T06:23:41;93868.13;;;9.75;100.00
11077;BME280;5591;42.626;23.380;2023-03-22T06:26:09;93880.94;;;9.91;100.00
11077;BME280;5591;42.626;23.380;2023-03-22T06:28:36;93879.03;;;10.06;100.00
11077;BME280;5591;42.626;23.380;2023-03-22T06:31:05;93880.69;;;10.20;100.00
11077;BME280;5591;42.626;23.380;2023-03-22T06:33:34;93883.13;;;10.21;100.00
11077;BME280;5591;42.626;23.380;2023-03-22T06:36:01;93885.97;;;10.26;100.00
11077;BME280;5591;42.626;23.380;2023-03-22T06:38:28;93880.63;;;10.47;100.00
11077;BME280;5591;42.626;23.380;2023-03-22T06:40:55;93883.91;;;10.62;100.00
11077;BME280;5591;42.626;23.380;2023-03-22T06:43:22;93888.75;;;10.65;100.00
11077;BME280;5591;42.626;23.380;2023-03-22T06:45:49;93897.16;;;10.41;100.00
11077;BME280;5591;42.626;23.380;2023-03-22T06:48:16;93886.53;;;10.56;100.00
11077;BME280;5591;42.626;23.380;2023-03-22T06:50:44;93890.56;;;10.58;100.00
11077;BME280;5591;42.626;23.380;2023-03-22T06:53:11;93900.41;;;10.50;100.00
11077;BME280;5591;42.626;23.380;2023-03-22T06:55:38;93898.50;;;10.71;100.00
11077;BME280;5591;42.626;23.380;2023-03-22T06:58:05;93900.28;;;10.71;100.00
11077;BME280;5591;42.626;23.380;2023-03-22T07:00:32;93909.69;;;10.46;100.00
11077;BME280;5591;42.626;23.380;2023-03-22T07:02:59;93921.31;;;10.77;100.00
11077;BME280;5591;42.626;23.380;2023-03-22T07:05:26;93918.97;;;11.02;100.00
11077;BME280;5591;42.626;23.380;2023-03-22T07:07:54;93921.09;;;10.66;100.00
11077;BME280;5591;42.626;23.380;2023-03-22T07:10:21;93933.63;;;10.70;100.00
11077;BME280;5591;42.626;23.380;2023-03-22T07:12:48;93925.88;;;10.56;100.00
11077;BME280;5591;42.626;23.380;2023-03-22T07:15:15;93909.69;;;10.46;100.00
11077;BME280;5591;42.626;23.380;2023-03-22T07:17:43;93926.09;;;10.61;100.00
11077;BME280;5591;42.626;23.380;2023-03-22T07:20:10;93930.38;;;10.75;100.00
11077;BME280;5591;42.626;23.380;2023-03-22T07:22:37;93937.09;;;10.90;100.00
11077;BME280;5591;42.626;23.380;2023-03-22T07:25:06;93929.97;;;10.71;100.00
11077;BME280;5591;42.626;23.380;2023-03-22T07:27:33;93935.13;;;10.99;100.00
11077;BME280;5591;42.626;23.380;2023-03-22T07:29:59;93936.47;;;10.82;100.00
11077;BME280;5591;42.626;23.380;2023-03-22T07:32:26;93945.22;;;11.08;100.00
11077;BME280;5591;42.626;23.380;2023-03-22T07:34:53;93946.22;;;11.01;100.00
11077;BME280;5591;42.626;23.380;2023-03-22T07:37:20;93955.16;;;10.59;100.00
11077;BME280;5591;42.626;23.380;2023-03-22T07:39:47;93947.94;;;10.68;100.00
11077;BME280;5591;42.626;23.380;2023-03-22T07:42:15;93955.16;;;10.59;100.00
11077;BME280;5591;42.626;23.380;2023-03-22T07:44:42;93961.94;;;10.88;100.00
11077;BME280;5591;42.626;23.380;2023-03-22T07:47:08;93959.97;;;11.03;100.00
11077;BME280;5591;42.626;23.380;2023-03-22T07:49:35;93953.25;;;10.94;100.00
11077;BME280;5591;42.626;23.380;2023-03-22T07:52:02;93956.81;;;11.33;100.00
11077;BME280;5591;42.626;23.380;2023-03-22T07:54:29;93959.06;;;11.49;100.00
11077;BME280;5591;42.626;23.380;2023-03-22T07:56:57;93971.53;;;11.28;100.00
11077;BME280;5591;42.626;23.380;2023-03-22T07:59:25;93973.63;;;11.45;100.00
11077;BME280;5591;42.626;23.380;2023-03-22T08:01:52;93972.56;;;11.33;100.00
11077;BME280;5591;42.626;23.380;2023-03-22T08:04:19;93973.56;;;11.19;100.00
11077;BME280;5591;42.626;23.380;2023-03-22T08:06:46;93958.50;;;10.94;100.00
11077;BME280;5591;42.626;23.380;2023-03-22T08:09:14;93974.94;;;11.09;100.00
11077;BME280;5591;42.626;23.380;2023-03-22T08:11:41;93963.19;;;11.05;100.00
11077;BME280;5591;42.626;23.380;2023-03-22T08:14:07;93973.94;;;11.10;100.00
11077;BME280;5591;42.626;23.380;2023-03-22T08:16:36;93963.03;;;11.19;100.00
11077;BME280;5591;42.626;23.380;2023-03-22T08:19:03;93968.16;;;11.47;100.00
11077;BME280;5591;42.626;23.380;2023-03-22T08:21:30;93972.78;;;11.32;100.00
11077;BME280;5591;42.626;23.380;2023-03-22T08:23:57;93972.94;;;11.11;100.00
11077;BME280;5591;42.626;23.380;2023-03-22T08:26:23;93969.34;;;10.37;100.00
11077;BME280;5591;42.626;23.380;2023-03-22T08:28:51;93975.44;;;10.85;100.00
11077;BME280;5591;42.626;23.380;2023-03-22T08:31:18;93979.06;;;11.31;100.00
11077;BME280;5591;42.626;23.380;2023-03-22T08:33:47;93978.50;;;10.95;100.00
11077;BME280;5591;42.626;23.380;2023-03-22T08:36:15;93963.59;;;11.02;100.00
11077;BME280;5591;42.626;23.380;2023-03-22T08:38:42;93969.47;;;11.10;100.00
11077;BME280;5591;42.626;23.380;2023-03-22T08:41:10;93974.97;;;11.15;100.00
11077;BME280;5591;42.626;23.380;2023-03-22T08:43:37;93981.25;;;11.27;100.00
11077;BME280;5591;42.626;23.380;2023-03-22T08:46:04;93974.69;;;11.70;100.00
11077;BME280;5591;42.626;23.380;2023-03-22T08:48:31;93986.00;;;11.58;100.00
11077;BME280;5591;42.626;23.380;2023-03-22T08:51:01;93984.75;;;11.54;100.00
11077;BME280;5591;42.626;23.380;2023-03-22T08:53:29;93977.22;;;11.38;100.00
11077;BME280;5591;42.626;23.380;2023-03-22T08:55:56;93980.69;;;11.45;100.00
11077;BME280;5591;42.626;23.380;2023-03-22T08:58:26;93969.44;;;11.57;100.00
11077;BME280;5591;42.626;23.380;2023-03-22T09:00:53;93949.81;;;11.79;100.00
11077;BME280;5591;42.626;23.380;2023-03-22T09:03:20;93950.63;;;11.86;100.00
11077;BME280;5591;42.626;23.380;2023-03-22T09:05:48;93996.72;;;11.69;100.00
11077;BME280;5591;42.626;23.380;2023-03-22T09:08:16;94010.06;;;11.81;100.00
11077;BME280;5591;42.626;23.380;2023-03-22T09:10:43;93992.31;;;11.96;100.00
11077;BME280;5591;42.626;23.380;2023-03-22T09:13:12;94019.00;;;12.06;100.00
11077;BME280;5591;42.626;23.380;2023-03-22T09:15:41;94000.56;;;11.86;100.00
11077;BME280;5591;42.626;23.380;2023-03-22T09:18:09;93996.13;;;11.87;100.00
11077;BME280;5591;42.626;23.380;2023-03-22T09:20:36;93998.16;;;12.11;100.00
11077;BME280;5591;42.626;23.380;2023-03-22T09:23:03;93996.75;;;12.28;100.00
11077;BME280;5591;42.626;23.380;2023-03-22T09:25:31;93993.91;;;12.03;100.00
11077;BME280;5591;42.626;23.380;2023-03-22T09:27:58;94008.03;;;11.70;100.00
11077;BME280;5591;42.626;23.380;2023-03-22T09:30:25;93996.31;;;11.85;100.00
11077;BME280;5591;42.626;23.380;2023-03-22T09:32:52;93998.34;;;11.83;100.00
11077;BME280;5591;42.626;23.380;2023-03-22T09:35:19;93978.94;;;11.97;100.00
11077;BME280;5591;42.626;23.380;2023-03-22T09:37:46;94012.94;;;11.99;100.00
11077;BME280;5591;42.626;23.380;2023-03-22T09:40:14;94006.47;;;11.95;100.00
11077;BME280;5591;42.626;23.380;2023-03-22T09:42:46;94000.59;;;11.93;100.00
11077;BME280;5591;42.626;23.380;2023-03-22T09:45:17;94023.22;;;11.74;100.00
11077;BME280;5591;42.626;23.380;2023-03-22T09:47:46;93962.69;;;11.42;100.00
11077;BME280;5591;42.626;23.380;2023-03-22T09:50:18;93995.34;;;11.99;100.00
11077;BME280;5591;42.626;23.380;2023-03-22T09:52:45;93999.59;;;11.87;100.00
11077;BME280;5591;42.626;23.380;2023-03-22T09:55:17;93989.03;;;11.74;100.00
11077;BME280;5591;42.626;23.380;2023-03-22T09:57:50;94004.81;;;11.68;100.00
11077;BME280;5591;42.626;23.380;2023-03-22T10:00:26;94003.75;;;11.56;100.00
11077;BME280;5591;42.626;23.380;2023-03-22T10:03:02;93987.59;;;11.65;100.00
11077;BME280;5591;42.626;23.380;2023-03-22T10:05:35;94003.00;;;11.88;100.00
11077;BME280;5591;42.626;23.380;2023-03-22T10:08:20;93999.38;;;12.02;100.00
11077;BME280;5591;42.626;23.380;2023-03-22T10:10:50;94004.63;;;12.40;100.00
11077;BME280;5591;42.626;23.380;2023-03-22T10:13:23;94017.34;;;12.43;100.00
11077;BME280;5591;42.626;23.380;2023-03-22T10:15:54;94019.97;;;12.69;100.00
11077;BME280;5591;42.626;23.380;2023-03-22T10:18:25;94027.88;;;12.69;100.00
11077;BME280;5591;42.626;23.380;2023-03-22T10:20:58;94015.75;;;12.36;100.00
11077;BME280;5591;42.626;23.380;2023-03-22T10:23:29;94025.28;;;12.24;100.00
11077;BME280;5591;42.626;23.380;2023-03-22T10:25:59;94030.94;;;11.95;100.00
11077;BME280;5591;42.626;23.380;2023-03-22T10:28:31;94026.50;;;12.15;100.00
11077;BME280;5591;42.626;23.380;2023-03-22T10:31:00;94022.03;;;12.29;100.00
11077;BME280;5591;42.626;23.380;2023-03-22T10:33:33;93932.00;;;11.94;100.00
11077;BME280;5591;42.626;23.380;2023-03-22T10:36:04;94030.75;;;12.10;100.00
11077;BME280;5591;42.626;23.380;2023-03-22T10:38:33;94017.75;;;12.47;100.00
11077;BME280;5591;42.626;23.380;2023-03-22T10:41:03;93996.88;;;12.71;100.00
11077;BME280;5591;42.626;23.380;2023-03-22T10:43:34;94021.50;;;13.09;100.00
11077;BME280;5591;42.626;23.380;2023-03-22T10:46:03;94015.28;;;13.41;100.00
11077;BME280;5591;42.626;23.380;2023-03-22T10:48:34;94019.59;;;13.29;100.00
11077;BME280;5591;42.626;23.380;2023-03-22T10:51:02;94018.53;;;13.43;100.00
11077;BME280;5591;42.626;23.380;2023-03-22T10:53:35;94015.19;;;13.61;100.00
11077;BME280;5591;42.626;23.380;2023-03-22T10:56:05;94010.69;;;13.61;100.00
11077;BME280;5591;42.626;23.380;2023-03-22T10:58:33;94015.69;;;13.76;100.00
11077;BME280;5591;42.626;23.380;2023-03-22T11:01:04;94014.91;;;13.75;100.00
11077;BME280;5591;42.626;23.380;2023-03-22T11:03:37;93990.63;;;13.60;100.00
11077;BME280;5591;42.626;23.380;2023-03-22T11:06:07;94015.84;;;13.87;100.00
11077;BME280;5591;42.626;23.380;2023-03-22T11:08:39;94016.81;;;13.93;100.00
11077;BME280;5591;42.626;23.380;2023-03-22T11:11:15;94017.34;;;14.01;100.00
11077;BME280;5591;42.626;23.380;2023-03-22T11:13:49;94017.66;;;13.87;100.00
11077;BME280;5591;42.626;23.380;2023-03-22T11:16:17;93964.75;;;13.51;100.00
11077;BME280;5591;42.626;23.380;2023-03-22T11:18:44;94011.34;;;13.57;100.00
11077;BME280;5591;42.626;23.380;2023-03-22T11:21:14;94006.00;;;13.70;100.00
11077;BME280;5591;42.626;23.380;2023-03-22T11:23:50;93996.78;;;13.85;100.00
11077;BME280;5591;42.626;23.380;2023-03-22T11:26:25;94008.13;;;13.86;100.00
11077;BME280;5591;42.626;23.380;2023-03-22T11:29:00;94008.34;;;13.84;100.00
11077;BME280;5591;42.626;23.380;2023-03-22T11:31:48;93983.19;;;13.82;100.00
11077;BME280;5591;42.626;23.380;2023-03-22T11:34:17;94005.03;;;13.95;100.00
11077;BME280;5591;42.626;23.380;2023-03-22T11:36:45;94008.41;;;14.02;100.00
11077;BME280;5591;42.626;23.380;2023-03-22T11:39:17;94010.56;;;13.87;100.00
11077;BME280;5591;42.626;23.380;2023-03-22T11:41:45;94005.72;;;13.78;100.00
11077;BME280;5591;42.626;23.380;2023-03-22T11:44:15;94009.09;;;13.60;100.00
11077;BME280;5591;42.626;23.380;2023-03-22T11:46:48;94003.41;;;13.63;100.00
11077;BME280;5591;42.626;23.380;2023-03-22T11:49:17;94002.78;;;13.61;100.00
11077;BME280;5591;42.626;23.380;2023-03-22T11:51:44;94002.88;;;13.48;100.00
11077;BME280;5591;42.626;23.380;2023-03-22T11:54:24;94006.28;;;13.18;100.00
11077;BME280;5591;42.626;23.380;2023-03-22T11:56:54;94005.38;;;13.30;100.00
11077;BME280;5591;42.626;23.380;2023-03-22T11:59:24;94004.63;;;13.23;100.00
11077;BME280;5591;42.626;23.380;2023-03-22T12:01:56;94002.59;;;13.25;100.00
11077;BME280;5591;42.626;23.380;2023-03-22T12:04:26;94008.72;;;13.13;100.00
11077;BME280;5591;42.626;23.380;2023-03-22T12:06:55;94000.97;;;13.24;100.00
11077;BME280;5591;42.626;23.380;2023-03-22T12:09:30;94008.47;;;13.21;100.00
11077;BME280;5591;42.626;23.380;2023-03-22T12:12:01;94005.69;;;13.53;100.00
11077;BME280;5591;42.626;23.380;2023-03-22T12:14:32;94028.81;;;13.51;100.00
11077;BME280;5591;42.626;23.380;2023-03-22T12:17:05;94004.31;;;13.44;100.00
11077;BME280;5591;42.626;23.380;2023-03-22T12:19:43;93928.16;;;12.86;100.00
11077;BME280;5591;42.626;23.380;2023-03-22T12:22:15;93986.69;;;13.38;100.00
11077;BME280;5591;42.626;23.380;2023-03-22T12:24:44;93993.31;;;13.85;100.00
11077;BME280;5591;42.626;23.380;2023-03-22T12:27:16;94000.22;;;14.17;100.00
11077;BME280;5591;42.626;23.380;2023-03-22T12:29:47;94005.38;;;14.54;100.00
11077;BME280;5591;42.626;23.380;2023-03-22T12:32:19;93998.09;;;14.50;100.00
11077;BME280;5591;42.626;23.380;2023-03-22T12:34:50;94001.56;;;14.50;100.00
11077;BME280;5591;42.626;23.380;2023-03-22T12:37:20;94022.44;;;14.94;100.00
11077;BME280;5591;42.626;23.380;2023-03-22T12:39:51;93996.03;;;15.30;100.00
11077;BME280;5591;42.626;23.380;2023-03-22T12:42:22;93994.88;;;15.55;100.00
11077;BME280;5591;42.626;23.380;2023-03-22T12:44:55;93989.84;;;15.95;100.00
11077;BME280;5591;42.626;23.380;2023-03-22T12:47:27;93990.63;;;17.05;100.00
11077;BME280;5591;42.626;23.380;2023-03-22T12:50:00;93992.75;;;17.82;100.00
11077;BME280;5591;42.626;23.380;2023-03-22T12:52:32;93991.38;;;18.24;96.61
11077;BME280;5591;42.626;23.380;2023-03-22T12:55:02;93987.81;;;18.18;92.42
11077;BME280;5591;42.626;23.380;2023-03-22T12:57:30;93987.06;;;17.90;88.67
11077;BME280;5591;42.626;23.380;2023-03-22T13:00:03;93992.97;;;18.08;81.35
11077;BME280;5591;42.626;23.380;2023-03-22T13:02:34;93977.25;;;17.63;77.14
11077;BME280;5591;42.626;23.380;2023-03-22T13:05:03;93989.16;;;17.88;82.13
11077;BME280;5591;42.626;23.380;2023-03-22T13:07:40;93942.19;;;17.88;73.39
11077;BME280;5591;42.626;23.380;2023-03-22T13:10:48;93986.53;;;17.76;71.61
11077;BME280;5591;42.626;23.380;2023-03-22T13:13:39;93987.66;;;16.90;81.66
11077;BME280;5591;42.626;23.380;2023-03-22T13:16:16;93967.28;;;16.45;83.74
11077;BME280;5591;42.626;23.380;2023-03-22T13:19:16;93983.09;;;16.10;90.26